createdAt,value
2022-08-28T00:00:25.224Z,21.10
2022-08-28T00:02:52.486Z,20.53
2022-08-28T00:05:22.356Z,20.27
2022-08-28T00:07:49.366Z,21.10
2022-08-28T00:10:18.308Z,20.49
2022-08-28T00:12:46.950Z,21.03
2022-08-28T00:15:17.701Z,20.98
2022-08-28T00:17:44.813Z,20.94
2022-08-28T00:20:18.609Z,21.09
2022-08-28T00:22:45.813Z,20.70
2022-08-28T00:25:14.319Z,20.96
2022-08-28T00:27:52.757Z,20.67
2022-08-28T00:30:31.907Z,20.84
2022-08-28T00:33:01.830Z,20.75
2022-08-28T00:35:28.484Z,20.88
2022-08-28T00:37:55.294Z,20.67
2022-08-28T00:40:30.428Z,21.11
2022-08-28T00:43:01.606Z,21.07
2022-08-28T00:45:28.440Z,20.42
2022-08-28T00:47:55.021Z,20.54
2022-08-28T00:50:25.490Z,21.02
2022-08-28T00:52:59.939Z,21.02
2022-08-28T00:55:28.177Z,20.87
2022-08-28T00:57:58.976Z,21.06
2022-08-28T01:00:34.709Z,21.03
2022-08-28T01:03:02.757Z,20.87
2022-08-28T01:05:30.020Z,20.87
2022-08-28T01:07:58.841Z,20.82
2022-08-28T01:10:28.638Z,20.69
2022-08-28T01:12:57.143Z,20.78
2022-08-28T01:15:31.548Z,20.88
2022-08-28T01:18:12.324Z,20.12
2022-08-28T01:20:47.458Z,20.71
2022-08-28T01:23:38.648Z,20.72
2022-08-28T01:26:10.940Z,20.46
2022-08-28T01:28:40.003Z,20.44
2022-08-28T01:31:10.689Z,20.42
2022-08-28T01:33:37.396Z,20.30
2022-08-28T01:36:10.326Z,20.61
2022-08-28T01:38:38.285Z,20.53
2022-08-28T01:41:05.083Z,20.47
2022-08-28T01:43:31.806Z,20.74
2022-08-28T01:46:02.096Z,20.15
2022-08-28T01:48:30.895Z,20.50
2022-08-28T01:50:57.515Z,20.53
2022-08-28T01:53:32.167Z,20.59
2022-08-28T01:56:02.656Z,20.43
2022-08-28T01:58:33.008Z,20.47
2022-08-28T02:01:02.581Z,20.12
2022-08-28T02:03:29.108Z,20.61
2022-08-28T02:05:55.614Z,20.46
2022-08-28T02:08:22.148Z,20.57
2022-08-28T02:10:49.241Z,20.05
2022-08-28T02:13:15.768Z,19.80
2022-08-28T02:15:44.115Z,20.10
2022-08-28T02:18:11.134Z,20.16
2022-08-28T02:20:37.948Z,20.47
2022-08-28T02:23:05.968Z,20.24
2022-08-28T02:25:32.957Z,19.95
2022-08-28T02:27:59.710Z,19.68
2022-08-28T02:30:26.377Z,20.19
2022-08-28T02:32:53.972Z,20.02
2022-08-28T02:35:22.648Z,20.33
2022-08-28T02:37:49.883Z,20.15
2022-08-28T02:40:20.335Z,20.13
2022-08-28T02:42:46.973Z,20.30
2022-08-28T02:45:14.681Z,19.97
2022-08-28T02:47:43.602Z,19.96
2022-08-28T02:50:13.084Z,20.20
2022-08-28T02:52:40.533Z,20.04
2022-08-28T02:55:09.696Z,19.61
2022-08-28T02:57:36.315Z,20.04
2022-08-28T03:00:06.088Z,19.93
2022-08-28T03:02:32.687Z,19.15
2022-08-28T03:05:00.460Z,18.69
2022-08-28T03:07:29.193Z,19.56
2022-08-28T03:09:56.632Z,19.79
2022-08-28T03:12:26.697Z,19.96
2022-08-28T03:14:54.596Z,20.01
2022-08-28T03:17:22.075Z,20.20
2022-08-28T03:19:50.104Z,19.72
2022-08-28T03:22:18.418Z,20.03
2022-08-28T03:24:45.738Z,19.96
2022-08-28T03:27:12.278Z,19.74
2022-08-28T03:29:39.267Z,19.53
2022-08-28T03:32:05.928Z,20.07
2022-08-28T03:34:33.500Z,19.88
2022-08-28T03:37:01.205Z,19.81
2022-08-28T03:39:27.876Z,19.44
2022-08-28T03:41:54.929Z,19.88
2022-08-28T03:44:21.579Z,20.09
2022-08-28T03:46:48.120Z,19.75
2022-08-28T03:49:14.737Z,19.87
2022-08-28T03:51:41.266Z,20.04
2022-08-28T03:54:07.833Z,20.01
2022-08-28T03:56:34.385Z,19.96
2022-08-28T03:59:03.344Z,19.90
2022-08-28T04:01:30.037Z,19.95
2022-08-28T04:03:57.063Z,19.96
2022-08-28T04:06:24.105Z,19.79
2022-08-28T04:08:51.082Z,19.78
2022-08-28T04:11:18.497Z,19.84
2022-08-28T04:13:45.204Z,19.90
2022-08-28T04:16:16.574Z,19.72
2022-08-28T04:18:45.994Z,19.78
2022-08-28T04:21:19.105Z,19.92
2022-08-28T04:23:46.678Z,19.88
2022-08-28T04:26:18.849Z,19.98
2022-08-28T04:28:46.671Z,19.73
2022-08-28T04:31:14.883Z,19.62
2022-08-28T04:33:41.903Z,19.47
2022-08-28T04:36:15.908Z,19.72
2022-08-28T04:38:44.078Z,19.79
2022-08-28T04:41:13.386Z,19.05
2022-08-28T04:43:40.170Z,19.44
2022-08-28T04:46:09.571Z,19.60
2022-08-28T04:48:36.247Z,19.60
2022-08-28T04:51:05.586Z,19.50
2022-08-28T04:53:32.974Z,19.56
2022-08-28T04:56:02.411Z,19.59
2022-08-28T04:58:30.448Z,19.82
2022-08-28T05:00:57.157Z,19.50
2022-08-28T05:03:24.107Z,19.62
2022-08-28T05:05:53.404Z,19.79
2022-08-28T05:08:24.019Z,19.47
2022-08-28T05:10:50.989Z,19.45
2022-08-28T05:13:18.524Z,19.45
2022-08-28T05:15:47.688Z,19.39
2022-08-28T05:18:16.422Z,19.54
2022-08-28T05:20:47.735Z,19.76
2022-08-28T05:23:15.841Z,19.62
2022-08-28T05:25:46.645Z,19.28
2022-08-28T05:28:16.751Z,19.11
2022-08-28T05:30:44.557Z,19.36
2022-08-28T05:33:13.458Z,19.44
2022-08-28T05:35:43.693Z,19.39
2022-08-28T05:38:12.311Z,19.12
2022-08-28T05:40:47.919Z,19.09
2022-08-28T05:43:15.774Z,19.21
2022-08-28T05:45:42.777Z,19.59
2022-08-28T05:48:09.488Z,19.17
2022-08-28T05:50:39.481Z,18.97
2022-08-28T05:53:11.069Z,19.28
2022-08-28T05:55:40.526Z,19.36
2022-08-28T05:58:25.638Z,19.65
2022-08-28T06:00:52.232Z,19.54
2022-08-28T06:03:18.751Z,19.49
2022-08-28T06:05:45.314Z,19.51
2022-08-28T06:08:11.969Z,19.85
2022-08-28T06:10:45.883Z,19.95
2022-08-28T06:13:15.267Z,19.71
2022-08-28T06:15:43.389Z,20.00
2022-08-28T06:18:10.098Z,19.82
2022-08-28T06:20:43.903Z,19.95
2022-08-28T06:23:12.244Z,19.80
2022-08-28T06:25:39.603Z,19.69
2022-08-28T06:28:07.595Z,19.80
2022-08-28T06:30:37.502Z,20.08
2022-08-28T06:33:07.699Z,19.97
2022-08-28T06:35:34.531Z,20.03
2022-08-28T06:38:01.418Z,19.73
2022-08-28T06:40:28.003Z,19.33
2022-08-28T06:42:54.582Z,19.97
2022-08-28T06:45:21.213Z,19.90
2022-08-28T06:47:47.798Z,20.05
2022-08-28T06:50:17.310Z,20.01
2022-08-28T06:52:44.166Z,20.05
2022-08-28T06:55:10.889Z,20.14
2022-08-28T06:57:38.284Z,20.03
2022-08-28T07:00:05.586Z,20.19
2022-08-28T07:02:32.594Z,19.94
2022-08-28T07:04:59.215Z,20.07
2022-08-28T07:07:32.468Z,19.98
2022-08-28T07:09:59.293Z,19.95
2022-08-28T07:12:25.846Z,19.67
2022-08-28T07:14:52.851Z,20.41
2022-08-28T07:17:19.477Z,20.83
2022-08-28T07:19:46.457Z,20.77
2022-08-28T07:22:12.991Z,20.87
2022-08-28T07:24:39.475Z,21.07
2022-08-28T07:27:06.032Z,21.13
2022-08-28T07:29:32.642Z,20.72
2022-08-28T07:31:59.545Z,20.73
2022-08-28T07:34:26.976Z,21.06
2022-08-28T07:36:54.138Z,20.64
2022-08-28T07:39:20.781Z,20.82
2022-08-28T07:41:47.945Z,20.67
2022-08-28T07:44:34.346Z,21.09
2022-08-28T07:47:05.635Z,21.00
2022-08-28T07:49:33.917Z,20.89
2022-08-28T07:52:01.351Z,20.59
2022-08-28T07:54:27.929Z,21.08
2022-08-28T07:56:54.674Z,21.43
2022-08-28T07:59:22.116Z,20.94
2022-08-28T08:01:51.408Z,21.57
2022-08-28T08:04:19.958Z,21.41
2022-08-28T08:06:46.957Z,21.22
2022-08-28T08:09:16.689Z,20.97
2022-08-28T08:11:43.594Z,21.25
2022-08-28T08:14:10.435Z,20.32
2022-08-28T08:16:40.294Z,20.68
2022-08-28T08:19:09.914Z,21.30
2022-08-28T08:21:37.631Z,21.23
2022-08-28T08:24:04.589Z,20.95
2022-08-28T08:26:32.244Z,20.50
2022-08-28T08:28:59.470Z,21.14
2022-08-28T08:31:35.180Z,21.50
2022-08-28T08:34:04.842Z,21.63
2022-08-28T08:36:33.709Z,20.85
2022-08-28T08:39:00.726Z,20.65
2022-08-28T08:41:39.415Z,20.60
2022-08-28T08:44:28.479Z,21.53
2022-08-28T08:47:10.652Z,21.21
2022-08-28T08:49:44.220Z,21.33
2022-08-28T08:52:30.139Z,22.11
2022-08-28T08:55:21.653Z,22.01
2022-08-28T08:57:53.840Z,22.18
2022-08-28T09:00:20.600Z,21.74
2022-08-28T09:02:54.583Z,21.36
2022-08-28T09:05:34.103Z,21.67
2022-08-28T09:08:03.070Z,21.36
2022-08-28T09:10:41.157Z,22.11
2022-08-28T09:13:32.063Z,22.32
2022-08-28T09:15:59.654Z,22.46
2022-08-28T09:18:34.036Z,22.47
2022-08-28T09:21:00.643Z,22.27
2022-08-28T09:23:29.843Z,22.56
2022-08-28T09:26:12.536Z,22.46
2022-08-28T09:28:41.619Z,22.05
2022-08-28T09:31:14.000Z,21.65
2022-08-28T09:33:44.847Z,22.48
2022-08-28T09:36:38.287Z,22.82
2022-08-28T09:39:19.651Z,22.03
2022-08-28T09:42:16.556Z,22.91
2022-08-28T09:44:51.311Z,22.74
2022-08-28T09:47:50.685Z,22.91
2022-08-28T09:50:24.744Z,23.13
2022-08-28T09:52:53.831Z,23.14
2022-08-28T09:55:38.439Z,22.59
2022-08-28T09:58:06.153Z,23.06
2022-08-28T10:00:50.052Z,23.17
2022-08-28T10:03:38.994Z,23.40
2022-08-28T10:06:13.951Z,23.37
2022-08-28T10:08:53.420Z,23.38
2022-08-28T10:11:31.502Z,23.80
2022-08-28T10:14:29.539Z,23.67
2022-08-28T10:17:16.671Z,23.55
2022-08-28T10:19:59.230Z,23.77
2022-08-28T10:22:43.690Z,23.61
2022-08-28T10:25:32.916Z,23.62
2022-08-28T10:28:02.273Z,23.72
2022-08-28T10:30:34.651Z,23.76
2022-08-28T10:33:07.708Z,23.69
2022-08-28T10:36:03.972Z,23.93
2022-08-28T10:38:41.862Z,24.45
2022-08-28T10:41:27.037Z,23.65
2022-08-28T10:43:57.219Z,23.88
2022-08-28T10:46:38.592Z,22.95
2022-08-28T10:49:28.384Z,22.91
2022-08-28T10:52:10.460Z,22.68
2022-08-28T10:54:44.018Z,23.35
2022-08-28T10:57:30.963Z,23.84
2022-08-28T11:00:00.150Z,24.33
2022-08-28T11:02:28.232Z,23.89
2022-08-28T11:04:58.639Z,24.13
2022-08-28T11:07:31.569Z,22.95
2022-08-28T11:10:15.838Z,24.37
2022-08-28T11:12:43.614Z,24.52
2022-08-28T11:15:22.414Z,24.11
2022-08-28T11:17:50.189Z,23.98
2022-08-28T11:20:24.728Z,24.68
2022-08-28T11:23:08.261Z,24.87
2022-08-28T11:25:58.836Z,24.64
2022-08-28T11:28:25.590Z,24.47
2022-08-28T11:31:00.941Z,24.08
2022-08-28T11:33:38.436Z,24.43
2022-08-28T11:36:29.704Z,24.51
2022-08-28T11:38:56.326Z,24.47
2022-08-28T11:41:30.582Z,24.89
2022-08-28T11:44:09.451Z,25.23
2022-08-28T11:46:43.363Z,24.39
2022-08-28T11:49:31.578Z,25.12
2022-08-28T11:52:29.143Z,25.22
2022-08-28T11:55:24.651Z,25.31
2022-08-28T12:00:46.183Z,23.76
2022-08-28T12:03:16.362Z,24.22
2022-08-28T12:05:45.937Z,24.37
2022-08-28T12:08:33.252Z,24.47
2022-08-28T12:10:59.892Z,25.04
2022-08-28T12:13:46.673Z,25.45
2022-08-28T12:16:15.768Z,24.42
2022-08-28T12:18:42.943Z,24.73
2022-08-28T12:21:17.690Z,24.77
2022-08-28T12:23:57.030Z,25.69
2022-08-28T12:26:28.272Z,24.46
2022-08-28T12:29:04.739Z,25.11
2022-08-28T12:32:12.370Z,24.82
2022-08-28T12:34:45.597Z,24.69
2022-08-28T12:37:53.743Z,24.25
2022-08-28T12:40:25.450Z,24.93
2022-08-28T12:42:56.620Z,25.39
2022-08-28T12:45:25.618Z,25.75
2022-08-28T12:47:56.216Z,25.69
2022-08-28T12:50:34.084Z,25.49
2022-08-28T12:53:04.343Z,25.57
2022-08-28T12:55:32.727Z,25.70
2022-08-28T12:58:00.369Z,25.03
2022-08-28T13:00:32.871Z,25.42
2022-08-28T13:03:00.969Z,25.76
2022-08-28T13:05:37.701Z,25.34
2022-08-28T13:08:11.237Z,25.85
2022-08-28T13:10:48.592Z,25.25
2022-08-28T13:13:41.172Z,25.18
2022-08-28T13:16:11.143Z,24.91
2022-08-28T13:19:10.541Z,24.96
2022-08-28T13:22:02.577Z,25.23
2022-08-28T13:24:31.831Z,24.91
2022-08-28T13:27:08.981Z,25.20
2022-08-28T13:29:36.674Z,25.27
2022-08-28T13:32:05.826Z,25.78
2022-08-28T13:34:35.467Z,25.98
2022-08-28T13:37:07.276Z,26.00
2022-08-28T13:39:41.442Z,25.69
2022-08-28T13:42:11.715Z,25.52
2022-08-28T13:44:49.213Z,25.05
2022-08-28T13:47:16.640Z,25.13
2022-08-28T13:49:43.304Z,24.86
2022-08-28T13:52:10.937Z,25.87
2022-08-28T13:54:41.587Z,25.24
2022-08-28T13:57:10.832Z,25.66
2022-08-28T13:59:37.406Z,25.76
2022-08-28T14:02:26.513Z,25.69
2022-08-28T14:04:53.692Z,25.47
2022-08-28T14:07:20.393Z,25.67
2022-08-28T14:09:47.025Z,25.76
2022-08-28T14:12:14.082Z,25.97
2022-08-28T14:14:40.801Z,25.65
2022-08-28T14:17:08.788Z,25.73
2022-08-28T14:19:36.211Z,25.92
2022-08-28T14:22:03.648Z,25.93
2022-08-28T14:24:30.439Z,25.82
2022-08-28T14:26:57.132Z,25.92
2022-08-28T14:29:23.702Z,25.37
2022-08-28T14:31:50.481Z,25.86
2022-08-28T14:34:22.458Z,25.86
2022-08-28T14:36:50.935Z,25.03
2022-08-28T14:39:17.710Z,24.69
2022-08-28T14:41:46.746Z,25.42
2022-08-28T14:44:13.840Z,25.57
2022-08-28T14:46:44.681Z,25.65
2022-08-28T14:49:13.632Z,25.37
2022-08-28T14:51:42.353Z,26.22
2022-08-28T14:54:11.406Z,26.27
2022-08-28T14:56:38.114Z,25.95
2022-08-28T14:59:06.660Z,25.58
2022-08-28T15:01:40.714Z,25.38
2022-08-28T15:04:11.880Z,24.87
2022-08-28T15:06:39.323Z,25.30
2022-08-28T15:09:06.065Z,25.08
2022-08-28T15:11:32.704Z,24.92
2022-08-28T15:13:59.288Z,24.92
2022-08-28T15:16:30.573Z,25.18
2022-08-28T15:18:59.280Z,25.29
2022-08-28T15:21:32.672Z,25.46
2022-08-28T15:24:00.889Z,25.02
2022-08-28T15:26:28.776Z,24.98
2022-08-28T15:28:58.226Z,24.99
2022-08-28T15:31:25.047Z,25.09
2022-08-28T15:33:52.387Z,25.18
2022-08-28T15:36:19.935Z,24.85
2022-08-28T15:39:05.259Z,25.18
2022-08-28T15:41:32.099Z,24.44
2022-08-28T15:44:01.397Z,25.01
2022-08-28T15:46:31.442Z,25.19
2022-08-28T15:48:58.053Z,25.06
2022-08-28T15:51:26.064Z,25.36
2022-08-28T15:53:52.950Z,24.70
2022-08-28T15:56:20.032Z,24.38
2022-08-28T15:58:46.745Z,24.62
2022-08-28T16:01:13.718Z,24.05
2022-08-28T16:03:40.776Z,24.84
2022-08-28T16:06:16.419Z,25.28
2022-08-28T16:08:43.869Z,25.28
2022-08-28T16:11:14.108Z,25.31
2022-08-28T16:13:40.804Z,24.91
2022-08-28T16:16:07.468Z,25.00
2022-08-28T16:18:34.106Z,25.21
2022-08-28T16:21:04.771Z,25.00
2022-08-28T16:23:32.458Z,24.83
2022-08-28T16:25:59.893Z,24.89
2022-08-28T16:28:27.117Z,24.34
2022-08-28T16:30:54.121Z,24.87
2022-08-28T16:33:22.244Z,25.00
2022-08-28T16:35:54.866Z,24.97
2022-08-28T16:38:23.198Z,24.21
2022-08-28T16:40:49.941Z,23.86
2022-08-28T16:43:16.671Z,24.14
2022-08-28T16:45:45.562Z,24.09
2022-08-28T16:48:14.427Z,24.25
2022-08-28T16:50:42.726Z,24.42
2022-08-28T16:53:09.947Z,24.15
2022-08-28T16:55:37.252Z,23.85
2022-08-28T16:58:04.952Z,23.74
2022-08-28T17:00:31.625Z,23.87
2022-08-28T17:02:58.243Z,23.91
2022-08-28T17:05:25.085Z,23.86
2022-08-28T17:07:52.304Z,23.90
2022-08-28T17:10:22.892Z,23.96
2022-08-28T17:12:49.500Z,23.91
2022-08-28T17:15:16.120Z,24.12
2022-08-28T17:17:43.081Z,23.72
2022-08-28T17:20:30.899Z,23.80
2022-08-28T17:22:57.497Z,23.63
2022-08-28T17:25:25.301Z,23.67
2022-08-28T17:27:52.476Z,23.77
2022-08-28T17:30:19.453Z,23.79
2022-08-28T17:32:46.686Z,23.80
2022-08-28T17:35:13.833Z,23.70
2022-08-28T17:37:41.224Z,23.37
2022-08-28T17:40:10.873Z,23.25
2022-08-28T17:42:37.518Z,23.27
2022-08-28T17:45:05.604Z,23.39
2022-08-28T17:47:32.194Z,23.12
2022-08-28T17:50:00.443Z,22.89
2022-08-28T17:52:28.378Z,22.98
2022-08-28T17:54:55.244Z,23.01
2022-08-28T17:57:23.134Z,23.02
2022-08-28T17:59:50.159Z,22.94
2022-08-28T18:02:17.080Z,22.96
2022-08-28T18:04:43.982Z,22.66
2022-08-28T18:07:11.190Z,22.50
2022-08-28T18:09:38.098Z,22.49
2022-08-28T18:12:06.755Z,22.80
2022-08-28T18:14:39.674Z,22.82
2022-08-28T18:17:06.374Z,22.72
2022-08-28T18:19:36.793Z,22.68
2022-08-28T18:22:03.437Z,22.72
2022-08-28T18:24:31.049Z,22.65
2022-08-28T18:26:58.913Z,22.56
2022-08-28T18:29:25.542Z,22.54
2022-08-28T18:31:52.220Z,22.43
2022-08-28T18:34:18.792Z,22.29
2022-08-28T18:36:45.488Z,22.54
2022-08-28T18:39:12.070Z,22.57
2022-08-28T18:41:44.096Z,22.36
2022-08-28T18:44:12.669Z,22.26
2022-08-28T18:46:39.280Z,22.48
2022-08-28T18:49:05.960Z,22.34
2022-08-28T18:51:32.913Z,22.54
2022-08-28T18:54:03.188Z,22.30
2022-08-28T18:56:32.401Z,22.00
2022-08-28T18:59:00.487Z,22.33
2022-08-28T19:01:27.183Z,22.08
2022-08-28T19:03:55.006Z,22.17
2022-08-28T19:06:22.105Z,22.15
2022-08-28T19:08:48.764Z,22.52
2022-08-28T19:11:16.179Z,22.59
2022-08-28T19:13:43.598Z,22.49
2022-08-28T19:16:15.373Z,22.60
2022-08-28T19:18:41.965Z,22.42
2022-08-28T19:21:16.375Z,22.51
2022-08-28T19:23:47.551Z,22.57
2022-08-28T19:26:24.444Z,22.35
2022-08-28T19:28:51.722Z,22.38
2022-08-28T19:31:18.457Z,22.40
2022-08-28T19:33:46.398Z,22.27
2022-08-28T19:36:13.800Z,22.22
2022-08-28T19:38:40.872Z,22.37
2022-08-28T19:41:09.347Z,22.43
2022-08-28T19:43:43.123Z,22.32
2022-08-28T19:46:19.314Z,22.25
2022-08-28T19:48:50.664Z,22.20
2022-08-28T19:51:22.952Z,22.23
2022-08-28T19:53:58.247Z,21.85
2022-08-28T19:56:33.782Z,22.12
2022-08-28T19:59:03.504Z,22.19
2022-08-28T20:01:33.418Z,21.54
2022-08-28T20:04:00.496Z,21.81
2022-08-28T20:06:30.244Z,22.07
2022-08-28T20:08:56.877Z,21.72
2022-08-28T20:11:30.601Z,22.03
2022-08-28T20:14:03.734Z,21.85
2022-08-28T20:16:34.060Z,21.86
2022-08-28T20:19:01.888Z,21.66
2022-08-28T20:21:36.782Z,21.87
2022-08-28T20:24:06.305Z,21.80
2022-08-28T20:26:32.945Z,21.49
2022-08-28T20:28:59.485Z,21.63
2022-08-28T20:31:26.377Z,21.96
2022-08-28T20:33:52.907Z,21.34
2022-08-28T20:36:21.188Z,20.53
2022-08-28T20:38:48.052Z,21.35
2022-08-28T20:41:18.343Z,20.16
2022-08-28T20:43:46.157Z,21.01
2022-08-28T20:46:14.206Z,21.00
2022-08-28T20:48:40.811Z,21.53
2022-08-28T20:51:07.933Z,21.62
2022-08-28T20:53:37.769Z,21.57
2022-08-28T20:56:08.384Z,21.64
2022-08-28T20:58:35.563Z,20.92
2022-08-28T21:01:02.259Z,20.54
2022-08-28T21:03:28.826Z,21.13
2022-08-28T21:05:55.470Z,21.37
2022-08-28T21:08:21.996Z,20.85
2022-08-28T21:10:48.506Z,20.62
2022-08-28T21:13:15.137Z,21.06
2022-08-28T21:15:41.734Z,20.83
2022-08-28T21:18:09.794Z,20.37
2022-08-28T21:20:38.349Z,20.98
2022-08-28T21:23:06.710Z,20.83
2022-08-28T21:25:33.288Z,20.57
2022-08-28T21:28:04.169Z,20.56
2022-08-28T21:30:31.339Z,20.99
2022-08-28T21:32:57.991Z,21.29
2022-08-28T21:35:24.696Z,20.92
2022-08-28T21:37:51.408Z,20.93
2022-08-28T21:40:19.295Z,21.03
2022-08-28T21:42:45.893Z,20.33
2022-08-28T21:45:12.826Z,20.62
2022-08-28T21:47:40.992Z,20.91
2022-08-28T21:50:08.456Z,20.70
2022-08-28T21:52:35.361Z,20.97
2022-08-28T21:55:05.666Z,20.95
2022-08-28T21:57:32.724Z,21.02
2022-08-28T21:59:59.516Z,20.68
2022-08-28T22:02:26.835Z,20.68
2022-08-28T22:04:53.718Z,20.74
2022-08-28T22:07:20.513Z,20.79
2022-08-28T22:09:47.165Z,20.17
2022-08-28T22:12:13.693Z,20.42
2022-08-28T22:14:40.257Z,20.63
2022-08-28T22:17:11.320Z,20.50
2022-08-28T22:19:39.156Z,20.30
2022-08-28T22:22:24.364Z,20.44
2022-08-28T22:24:51.389Z,20.26
2022-08-28T22:27:17.982Z,20.34
2022-08-28T22:29:44.520Z,20.50
2022-08-28T22:32:11.191Z,20.46
2022-08-28T22:34:41.236Z,20.55
2022-08-28T22:37:11.423Z,20.63
2022-08-28T22:39:42.085Z,20.46
2022-08-28T22:42:09.852Z,20.53
2022-08-28T22:44:37.705Z,20.15
2022-08-28T22:47:04.711Z,20.41
2022-08-28T22:49:31.401Z,20.25
2022-08-28T22:51:57.920Z,20.39
2022-08-28T22:54:24.676Z,20.31
2022-08-28T22:56:51.185Z,20.24
2022-08-28T22:59:18.474Z,20.39
2022-08-28T23:01:45.182Z,20.31
2022-08-28T23:04:12.152Z,20.29
2022-08-28T23:06:41.736Z,20.08
2022-08-28T23:09:08.951Z,20.12
2022-08-28T23:11:36.473Z,20.19
2022-08-28T23:14:04.806Z,20.19
2022-08-28T23:16:31.456Z,20.19
2022-08-28T23:19:09.239Z,20.26
2022-08-28T23:21:42.728Z,19.70
2022-08-28T23:24:10.720Z,19.27
2022-08-28T23:26:37.223Z,19.37
2022-08-28T23:29:05.037Z,18.75
2022-08-28T23:31:31.632Z,19.29
2022-08-28T23:33:58.208Z,19.50
2022-08-28T23:36:25.192Z,19.51
2022-08-28T23:38:51.942Z,19.77
2022-08-28T23:41:18.628Z,19.69
2022-08-28T23:43:45.923Z,19.69
2022-08-28T23:46:16.391Z,19.72
2022-08-28T23:48:43.205Z,19.74
2022-08-28T23:51:13.774Z,19.39
2022-08-28T23:53:42.171Z,19.60
2022-08-28T23:56:09.497Z,19.46
2022-08-28T23:58:36.041Z,19.69
